sensor_id;sensor_type;location;lat;lon;timestamp;pressure;altitude;pressure_sealevel;temperature;humidity
60820;BME280;46641;48.904;9.126;2023-04-09T00:04:46;99286.88;;;14.12;48.74
60820;BME280;46641;48.904;9.126;2023-04-09T00:09:36;99286.50;;;14.07;48.71
60820;BME280;46641;48.904;9.126;2023-04-09T00:14:26;99281.53;;;14.03;49.02
60820;BME280;46641;48.904;9.126;2023-04-09T00:19:17;99280.03;;;14.01;48.41
60820;BME280;46641;48.904;9.126;2023-04-09T00:24:07;99275.06;;;13.98;48.54
60820;BME280;46641;48.904;9.126;2023-04-09T00:28:57;99279.81;;;13.94;48.82
60820;BME280;46641;48.904;9.126;2023-04-09T00:33:48;99273.19;;;13.90;48.84
60820;BME280;46641;48.904;9.126;2023-04-09T00:38:38;99268.38;;;13.86;48.52
60820;BME280;46641;48.904;9.126;2023-04-09T00:43:28;99257.97;;;13.84;49.03
60820;BME280;46641;48.904;9.126;2023-04-09T00:48:19;99267.84;;;13.82;48.83
60820;BME280;46641;48.904;9.126;2023-04-09T00:53:11;99267.31;;;13.78;48.93
60820;BME280;46641;48.904;9.126;2023-04-09T00:58:01;99259.72;;;13.75;48.95
60820;BME280;46641;48.904;9.126;2023-04-09T01:02:52;99266.94;;;13.73;49.23
60820;BME280;46641;48.904;9.126;2023-04-09T01:08:05;99259.50;;;13.69;48.82
60820;BME280;46641;48.904;9.126;2023-04-09T01:13:11;99265.06;;;13.66;48.59
60820;BME280;46641;48.904;9.126;2023-04-09T01:18:11;99265.19;;;13.64;49.08
60820;BME280;46641;48.904;9.126;2023-04-09T01:23:17;99261.91;;;13.62;49.08
60820;BME280;46641;48.904;9.126;2023-04-09T01:28:31;99260.38;;;13.60;48.86
60820;BME280;46641;48.904;9.126;2023-04-09T01:33:19;99259.03;;;13.55;49.10
60820;BME280;46641;48.904;9.126;2023-04-09T01:38:10;99254.88;;;13.53;49.06
60820;BME280;46641;48.904;9.126;2023-04-09T01:43:02;99253.25;;;13.52;49.26
60820;BME280;46641;48.904;9.126;2023-04-09T01:47:53;99262.25;;;13.49;49.21
60820;BME280;46641;48.904;9.126;2023-04-09T01:52:44;99264.19;;;13.47;49.29
60820;BME280;46641;48.904;9.126;2023-04-09T01:57:35;99269.75;;;13.44;49.36
60820;BME280;46641;48.904;9.126;2023-04-09T02:02:34;99269.91;;;13.43;49.10
60820;BME280;46641;48.904;9.126;2023-04-09T02:07:39;99267.41;;;13.41;49.47
60820;BME280;46641;48.904;9.126;2023-04-09T02:12:35;99267.69;;;13.38;49.45
60820;BME280;46641;48.904;9.126;2023-04-09T02:17:26;99265.06;;;13.38;49.35
60820;BME280;46641;48.904;9.126;2023-04-09T02:22:16;99263.41;;;13.37;49.54
60820;BME280;46641;48.904;9.126;2023-04-09T02:27:07;99260.25;;;13.33;49.37
60820;BME280;46641;48.904;9.126;2023-04-09T02:31:57;99253.50;;;13.31;49.66
60820;BME280;46641;48.904;9.126;2023-04-09T02:36:47;99252.78;;;13.29;49.59
60820;BME280;46641;48.904;9.126;2023-04-09T02:41:38;99252.13;;;13.27;49.66
60820;BME280;46641;48.904;9.126;2023-04-09T02:46:28;99251.31;;;13.26;49.48
60820;BME280;46641;48.904;9.126;2023-04-09T02:51:19;99261.00;;;13.26;49.75
60820;BME280;46641;48.904;9.126;2023-04-09T02:56:09;99255.88;;;13.24;49.62
60820;BME280;46641;48.904;9.126;2023-04-09T03:01:00;99250.88;;;13.21;49.89
60820;BME280;46641;48.904;9.126;2023-04-09T03:05:50;99249.34;;;13.19;50.01
60820;BME280;46641;48.904;9.126;2023-04-09T03:10:40;99242.47;;;13.18;49.87
60820;BME280;46641;48.904;9.126;2023-04-09T03:15:30;99247.03;;;13.16;50.00
60820;BME280;46641;48.904;9.126;2023-04-09T03:20:21;99254.09;;;13.15;49.83
60820;BME280;46641;48.904;9.126;2023-04-09T03:25:11;99241.22;;;13.12;50.04
60820;BME280;46641;48.904;9.126;2023-04-09T03:30:01;99239.06;;;13.07;50.13
60820;BME280;46641;48.904;9.126;2023-04-09T03:34:52;99242.66;;;13.06;50.14
60820;BME280;46641;48.904;9.126;2023-04-09T03:39:42;99240.97;;;13.05;50.06
60820;BME280;46641;48.904;9.126;2023-04-09T03:44:32;99244.72;;;13.03;50.18
60820;BME280;46641;48.904;9.126;2023-04-09T03:49:23;99246.53;;;13.02;49.87
60820;BME280;46641;48.904;9.126;2023-04-09T03:54:13;99239.63;;;13.01;49.92
60820;BME280;46641;48.904;9.126;2023-04-09T03:59:03;99237.00;;;13.01;50.08
60820;BME280;46641;48.904;9.126;2023-04-09T04:03:54;99239.91;;;12.98;50.27
60820;BME280;46641;48.904;9.126;2023-04-09T04:08:44;99236.59;;;12.96;50.00
60820;BME280;46641;48.904;9.126;2023-04-09T04:13:35;99243.00;;;12.94;50.13
60820;BME280;46641;48.904;9.126;2023-04-09T04:18:25;99243.13;;;12.92;50.17
60820;BME280;46641;48.904;9.126;2023-04-09T04:23:15;99255.56;;;12.90;50.17
60820;BME280;46641;48.904;9.126;2023-04-09T04:28:05;99257.53;;;12.88;50.16
60820;BME280;46641;48.904;9.126;2023-04-09T04:32:56;99256.69;;;12.88;50.13
60820;BME280;46641;48.904;9.126;2023-04-09T04:37:48;99258.50;;;12.87;50.45
60820;BME280;46641;48.904;9.126;2023-04-09T04:42:39;99249.94;;;12.85;50.58
60820;BME280;46641;48.904;9.126;2023-04-09T04:47:29;99251.84;;;12.83;50.45
60820;BME280;46641;48.904;9.126;2023-04-09T04:52:20;99263.34;;;12.82;50.48
60820;BME280;46641;48.904;9.126;2023-04-09T04:57:10;99263.50;;;12.80;50.26
60820;BME280;46641;48.904;9.126;2023-04-09T05:02:00;99264.59;;;12.78;50.48
60820;BME280;46641;48.904;9.126;2023-04-09T05:06:51;99266.53;;;12.76;50.22
60820;BME280;46641;48.904;9.126;2023-04-09T05:11:41;99275.53;;;12.73;50.53
60820;BME280;46641;48.904;9.126;2023-04-09T05:16:32;99262.38;;;12.73;50.32
60820;BME280;46641;48.904;9.126;2023-04-09T05:21:22;99269.31;;;12.74;50.57
60820;BME280;46641;48.904;9.126;2023-04-09T05:26:12;99269.44;;;12.73;50.62
60820;BME280;46641;48.904;9.126;2023-04-09T05:31:03;99286.19;;;12.72;50.40
60820;BME280;46641;48.904;9.126;2023-04-09T05:35:53;99286.19;;;12.72;50.49
60820;BME280;46641;48.904;9.126;2023-04-09T05:40:43;99277.63;;;12.70;50.79
60820;BME280;46641;48.904;9.126;2023-04-09T05:45:34;99282.19;;;12.68;50.49
60820;BME280;46641;48.904;9.126;2023-04-09T05:50:25;99274.31;;;12.68;50.98
60820;BME280;46641;48.904;9.126;2023-04-09T05:55:15;99282.03;;;12.69;50.57
60820;BME280;46641;48.904;9.126;2023-04-09T06:00:06;99276.94;;;12.68;50.60
60820;BME280;46641;48.904;9.126;2023-04-09T06:04:57;99281.34;;;12.67;50.73
60820;BME280;46641;48.904;9.126;2023-04-09T06:09:47;99287.56;;;12.66;50.94
60820;BME280;46641;48.904;9.126;2023-04-09T06:14:38;99291.03;;;12.67;50.76
60820;BME280;46641;48.904;9.126;2023-04-09T06:19:28;99284.13;;;12.66;51.24
60820;BME280;46641;48.904;9.126;2023-04-09T06:24:18;99278.06;;;12.65;50.85
60820;BME280;46641;48.904;9.126;2023-04-09T06:29:09;99278.06;;;12.65;50.86
60820;BME280;46641;48.904;9.126;2023-04-09T06:33:59;99279.69;;;12.66;51.15
60820;BME280;46641;48.904;9.126;2023-04-09T06:38:49;99294.47;;;12.67;50.93
60820;BME280;46641;48.904;9.126;2023-04-09T06:43:40;99283.84;;;12.69;51.05
60820;BME280;46641;48.904;9.126;2023-04-09T06:48:30;99295.16;;;12.69;51.09
60820;BME280;46641;48.904;9.126;2023-04-09T06:53:20;99294.34;;;12.69;50.90
60820;BME280;46641;48.904;9.126;2023-04-09T06:58:10;99289.91;;;12.69;51.12
60820;BME280;46641;48.904;9.126;2023-04-09T07:03:01;99303.88;;;12.70;51.50
60820;BME280;46641;48.904;9.126;2023-04-09T07:07:51;99294.06;;;12.72;51.24
60820;BME280;46641;48.904;9.126;2023-04-09T07:12:42;99297.25;;;12.75;51.53
60820;BME280;46641;48.904;9.126;2023-04-09T07:17:33;99293.91;;;12.73;51.21
60820;BME280;46641;48.904;9.126;2023-04-09T07:22:25;99291.28;;;12.73;51.58
60820;BME280;46641;48.904;9.126;2023-04-09T07:27:15;99291.81;;;12.77;51.44
60820;BME280;46641;48.904;9.126;2023-04-09T07:32:06;99297.09;;;12.77;51.86
60820;BME280;46641;48.904;9.126;2023-04-09T07:36:56;99296.78;;;12.80;51.36
60820;BME280;46641;48.904;9.126;2023-04-09T07:41:46;99297.78;;;12.79;51.33
60820;BME280;46641;48.904;9.126;2023-04-09T07:46:37;99300.28;;;12.80;51.11
60820;BME280;46641;48.904;9.126;2023-04-09T07:51:28;99317.53;;;12.83;51.13
60820;BME280;46641;48.904;9.126;2023-04-09T07:56:18;99319.59;;;12.89;50.91
60820;BME280;46641;48.904;9.126;2023-04-09T08:01:09;99315.03;;;12.91;50.61
60820;BME280;46641;48.904;9.126;2023-04-09T08:05:59;99326.81;;;12.87;50.76
60820;BME280;46641;48.904;9.126;2023-04-09T08:10:50;99325.09;;;12.96;50.67
60820;BME280;46641;48.904;9.126;2023-04-09T08:15:40;99316.94;;;12.99;50.49
60820;BME280;46641;48.904;9.126;2023-04-09T08:20:30;99316.66;;;13.02;50.29
60820;BME280;46641;48.904;9.126;2023-04-09T08:25:22;99315.94;;;13.09;50.28
60820;BME280;46641;48.904;9.126;2023-04-09T08:30:12;99316.50;;;13.13;49.85
60820;BME280;46641;48.904;9.126;2023-04-09T08:35:02;99318.41;;;13.21;49.69
60820;BME280;46641;48.904;9.126;2023-04-09T08:39:53;99310.09;;;13.25;49.60
60820;BME280;46641;48.904;9.126;2023-04-09T08:44:43;99316.88;;;13.28;49.83
60820;BME280;46641;48.904;9.126;2023-04-09T08:49:33;99314.94;;;13.30;50.01
60820;BME280;46641;48.904;9.126;2023-04-09T08:54:24;99309.63;;;13.40;49.56
60820;BME280;46641;48.904;9.126;2023-04-09T08:59:16;99310.84;;;13.45;49.26
60820;BME280;46641;48.904;9.126;2023-04-09T09:04:10;99318.66;;;13.55;48.79
60820;BME280;46641;48.904;9.126;2023-04-09T09:14:07;99325.78;;;13.72;47.93
60820;BME280;46641;48.904;9.126;2023-04-09T09:18:58;99326.69;;;13.81;49.06
60820;BME280;46641;48.904;9.126;2023-04-09T09:23:49;99332.22;;;13.88;49.47
60820;BME280;46641;48.904;9.126;2023-04-09T09:28:40;99320.94;;;13.95;48.29
60820;BME280;46641;48.904;9.126;2023-04-09T09:33:32;99319.53;;;14.01;48.95
60820;BME280;46641;48.904;9.126;2023-04-09T09:38:22;99322.91;;;14.11;48.04
60820;BME280;46641;48.904;9.126;2023-04-09T09:43:13;99335.69;;;14.24;48.36
60820;BME280;46641;48.904;9.126;2023-04-09T09:48:04;99321.63;;;14.33;47.88
60820;BME280;46641;48.904;9.126;2023-04-09T09:53:05;99314.63;;;14.42;47.24
60820;BME280;46641;48.904;9.126;2023-04-09T09:57:57;99330.59;;;14.40;47.80
60820;BME280;46641;48.904;9.126;2023-04-09T10:02:56;99312.31;;;14.57;48.26
60820;BME280;46641;48.904;9.126;2023-04-09T10:07:48;99316.66;;;14.66;46.49
60820;BME280;46641;48.904;9.126;2023-04-09T10:12:38;99319.19;;;14.76;47.53
60820;BME280;46641;48.904;9.126;2023-04-09T10:17:30;99319.53;;;14.81;47.58
60820;BME280;46641;48.904;9.126;2023-04-09T10:22:25;99308.91;;;14.90;47.65
60820;BME280;46641;48.904;9.126;2023-04-09T10:27:18;99304.66;;;14.98;47.66
60820;BME280;46641;48.904;9.126;2023-04-09T10:32:09;99306.66;;;15.04;47.60
60820;BME280;46641;48.904;9.126;2023-04-09T10:37:00;99302.41;;;15.11;46.84
60820;BME280;46641;48.904;9.126;2023-04-09T10:41:52;99300.03;;;15.26;47.56
60820;BME280;46641;48.904;9.126;2023-04-09T10:46:44;99295.31;;;15.37;48.04
60820;BME280;46641;48.904;9.126;2023-04-09T10:51:36;99304.06;;;15.46;48.65
60820;BME280;46641;48.904;9.126;2023-04-09T10:56:28;99291.88;;;15.53;48.27
60820;BME280;46641;48.904;9.126;2023-04-09T11:01:21;99292.44;;;15.65;47.20
60820;BME280;46641;48.904;9.126;2023-04-09T11:06:14;99293.97;;;15.76;47.26
60820;BME280;46641;48.904;9.126;2023-04-09T11:11:06;99288.53;;;15.85;48.58
60820;BME280;46641;48.904;9.126;2023-04-09T11:15:57;99294.84;;;15.93;49.17
60820;BME280;46641;48.904;9.126;2023-04-09T11:20:52;99293.53;;;16.05;48.79
60820;BME280;46641;48.904;9.126;2023-04-09T11:25:47;99286.78;;;16.19;49.36
60820;BME280;46641;48.904;9.126;2023-04-09T11:30:38;99276.22;;;16.27;49.75
60820;BME280;46641;48.904;9.126;2023-04-09T11:35:28;99268.94;;;16.37;49.41
60820;BME280;46641;48.904;9.126;2023-04-09T11:40:23;99280.66;;;16.51;48.53
60820;BME280;46641;48.904;9.126;2023-04-09T11:45:15;99271.25;;;16.56;49.37
60820;BME280;46641;48.904;9.126;2023-04-09T11:50:07;99275.72;;;16.64;48.22
60820;BME280;46641;48.904;9.126;2023-04-09T11:55:05;99268.75;;;16.71;47.73
60820;BME280;46641;48.904;9.126;2023-04-09T11:59:55;99263.31;;;16.81;47.83
60820;BME280;46641;48.904;9.126;2023-04-09T12:04:49;99269.56;;;16.88;48.32
60820;BME280;46641;48.904;9.126;2023-04-09T12:09:48;99261.44;;;16.98;47.71
60820;BME280;46641;48.904;9.126;2023-04-09T12:14:44;99273.00;;;17.05;48.52
60820;BME280;46641;48.904;9.126;2023-04-09T12:19:35;99265.72;;;17.07;49.35
60820;BME280;46641;48.904;9.126;2023-04-09T12:24:25;99261.38;;;17.14;47.04
60820;BME280;46641;48.904;9.126;2023-04-09T12:29:19;99270.63;;;17.18;46.61
60820;BME280;46641;48.904;9.126;2023-04-09T12:34:09;99253.13;;;17.17;45.62
60820;BME280;46641;48.904;9.126;2023-04-09T12:39:00;99256.09;;;17.22;48.11
60820;BME280;46641;48.904;9.126;2023-04-09T12:43:50;99245.78;;;17.27;46.52
60820;BME280;46641;48.904;9.126;2023-04-09T12:48:40;99237.97;;;17.34;47.20
60820;BME280;46641;48.904;9.126;2023-04-09T12:53:31;99234.19;;;17.28;46.09
60820;BME280;46641;48.904;9.126;2023-04-09T12:58:21;99229.03;;;17.35;46.01
60820;BME280;46641;48.904;9.126;2023-04-09T13:03:11;99227.03;;;17.45;46.08
60820;BME280;46641;48.904;9.126;2023-04-09T13:08:02;99225.84;;;17.48;47.33
60820;BME280;46641;48.904;9.126;2023-04-09T13:12:52;99223.50;;;17.53;46.32
60820;BME280;46641;48.904;9.126;2023-04-09T13:17:43;99210.25;;;17.53;46.28
60820;BME280;46641;48.904;9.126;2023-04-09T13:22:33;99215.22;;;17.56;46.84
60820;BME280;46641;48.904;9.126;2023-04-09T13:27:23;99205.63;;;17.55;46.22
60820;BME280;46641;48.904;9.126;2023-04-09T13:32:13;99210.72;;;17.57;45.68
60820;BME280;46641;48.904;9.126;2023-04-09T13:37:04;99205.28;;;17.58;45.30
60820;BME280;46641;48.904;9.126;2023-04-09T13:41:55;99194.03;;;17.56;46.75
60820;BME280;46641;48.904;9.126;2023-04-09T13:46:45;99183.44;;;17.56;47.39
60820;BME280;46641;48.904;9.126;2023-04-09T13:51:36;99178.16;;;17.56;47.26
60820;BME280;46641;48.904;9.126;2023-04-09T13:56:26;99174.97;;;17.61;46.22
60820;BME280;46641;48.904;9.126;2023-04-09T14:01:17;99177.09;;;17.65;46.48
60820;BME280;46641;48.904;9.126;2023-04-09T14:06:08;99168.81;;;17.68;45.16
60820;BME280;46641;48.904;9.126;2023-04-09T14:10:59;99163.50;;;17.68;43.96
60820;BME280;46641;48.904;9.126;2023-04-09T14:15:49;99160.31;;;17.73;45.49
60820;BME280;46641;48.904;9.126;2023-04-09T14:20:39;99154.56;;;17.69;46.26
60820;BME280;46641;48.904;9.126;2023-04-09T14:25:30;99151.09;;;17.69;46.91
60820;BME280;46641;48.904;9.126;2023-04-09T14:30:21;99143.25;;;17.75;46.10
60820;BME280;46641;48.904;9.126;2023-04-09T14:35:11;99149.22;;;17.78;46.50
60820;BME280;46641;48.904;9.126;2023-04-09T14:40:02;99144.59;;;17.80;45.63
60820;BME280;46641;48.904;9.126;2023-04-09T14:44:52;99136.94;;;17.85;45.09
60820;BME280;46641;48.904;9.126;2023-04-09T14:49:42;99144.16;;;17.91;44.59
60820;BME280;46641;48.904;9.126;2023-04-09T14:54:32;99149.47;;;17.91;44.61
60820;BME280;46641;48.904;9.126;2023-04-09T14:59:23;99142.97;;;17.93;44.54
60820;BME280;46641;48.904;9.126;2023-04-09T15:04:14;99141.97;;;17.94;43.78
60820;BME280;46641;48.904;9.126;2023-04-09T15:09:04;99140.31;;;17.93;44.36
60820;BME280;46641;48.904;9.126;2023-04-09T15:13:55;99140.78;;;17.97;43.51
60820;BME280;46641;48.904;9.126;2023-04-09T15:18:46;99136.50;;;17.96;44.23
60820;BME280;46641;48.904;9.126;2023-04-09T15:23:40;99133.84;;;17.96;45.39
60820;BME280;46641;48.904;9.126;2023-04-09T15:28:30;99134.84;;;17.95;45.68
60820;BME280;46641;48.904;9.126;2023-04-09T15:33:20;99128.75;;;17.94;46.15
60820;BME280;46641;48.904;9.126;2023-04-09T15:38:11;99124.72;;;17.98;45.73
60820;BME280;46641;48.904;9.126;2023-04-09T15:43:01;99127.19;;;18.00;45.72
60820;BME280;46641;48.904;9.126;2023-04-09T15:47:51;99130.69;;;18.01;45.86
60820;BME280;46641;48.904;9.126;2023-04-09T15:52:41;99128.28;;;18.06;45.33
60820;BME280;46641;48.904;9.126;2023-04-09T15:57:32;99121.16;;;18.06;45.62
60820;BME280;46641;48.904;9.126;2023-04-09T16:02:22;99118.16;;;18.09;43.11
60820;BME280;46641;48.904;9.126;2023-04-09T16:07:13;99118.34;;;18.08;45.09
60820;BME280;46641;48.904;9.126;2023-04-09T16:12:05;99120.25;;;17.99;40.59
60820;BME280;46641;48.904;9.126;2023-04-09T16:16:55;99128.84;;;18.01;44.82
60820;BME280;46641;48.904;9.126;2023-04-09T16:21:46;99124.81;;;18.05;43.46
60820;BME280;46641;48.904;9.126;2023-04-09T16:26:38;99127.47;;;18.05;43.63
60820;BME280;46641;48.904;9.126;2023-04-09T16:31:29;99130.94;;;18.06;43.88
60820;BME280;46641;48.904;9.126;2023-04-09T16:36:19;99126.66;;;18.05;44.01
60820;BME280;46641;48.904;9.126;2023-04-09T16:41:10;99127.47;;;18.05;44.51
60820;BME280;46641;48.904;9.126;2023-04-09T16:46:00;99134.25;;;18.08;44.51
60820;BME280;46641;48.904;9.126;2023-04-09T16:50:51;99139.53;;;18.08;45.11
60820;BME280;46641;48.904;9.126;2023-04-09T16:55:41;99131.59;;;18.08;45.20
60820;BME280;46641;48.904;9.126;2023-04-09T17:00:33;99133.44;;;18.07;44.53
60820;BME280;46641;48.904;9.126;2023-04-09T17:05:24;99127.78;;;18.10;45.06
60820;BME280;46641;48.904;9.126;2023-04-09T17:10:14;99123.28;;;18.11;43.94
60820;BME280;46641;48.904;9.126;2023-04-09T17:15:05;99132.41;;;18.08;44.97
60820;BME280;46641;48.904;9.126;2023-04-09T17:19:56;99130.59;;;18.09;44.76
60820;BME280;46641;48.904;9.126;2023-04-09T17:24:47;99127.78;;;18.10;44.78
60820;BME280;46641;48.904;9.126;2023-04-09T17:29:37;99125.13;;;18.10;44.55
60820;BME280;46641;48.904;9.126;2023-04-09T17:34:28;99129.75;;;18.08;44.72
60820;BME280;46641;48.904;9.126;2023-04-09T17:39:18;99135.63;;;18.04;44.33
60820;BME280;46641;48.904;9.126;2023-04-09T17:44:08;99136.13;;;17.99;44.67
60820;BME280;46641;48.904;9.126;2023-04-09T17:48:59;99137.97;;;17.98;44.48
60820;BME280;46641;48.904;9.126;2023-04-09T17:53:51;99143.81;;;17.94;44.45
60820;BME280;46641;48.904;9.126;2023-04-09T17:58:43;99142.97;;;17.93;44.63
60820;BME280;46641;48.904;9.126;2023-04-09T18:03:34;99147.81;;;17.90;44.47
60820;BME280;46641;48.904;9.126;2023-04-09T18:08:24;99154.28;;;17.87;44.55
60820;BME280;46641;48.904;9.126;2023-04-09T18:13:14;99157.47;;;17.83;45.00
60820;BME280;46641;48.904;9.126;2023-04-09T18:18:04;99163.13;;;17.80;44.58
60820;BME280;46641;48.904;9.126;2023-04-09T18:22:55;99165.09;;;17.78;44.41
60820;BME280;46641;48.904;9.126;2023-04-09T18:27:45;99179.69;;;17.73;44.43
60820;BME280;46641;48.904;9.126;2023-04-09T18:32:35;99193.09;;;17.72;44.86
60820;BME280;46641;48.904;9.126;2023-04-09T18:37:26;99201.22;;;17.70;44.82
60820;BME280;46641;48.904;9.126;2023-04-09T18:42:16;99205.41;;;17.65;44.71
60820;BME280;46641;48.904;9.126;2023-04-09T18:47:07;99210.03;;;17.63;44.46
60820;BME280;46641;48.904;9.126;2023-04-09T18:51:58;99207.94;;;17.58;44.64
60820;BME280;46641;48.904;9.126;2023-04-09T18:56:48;99211.91;;;17.54;44.49
60820;BME280;46641;48.904;9.126;2023-04-09T19:01:38;99212.59;;;17.48;44.48
60820;BME280;46641;48.904;9.126;2023-04-09T19:06:29;99214.97;;;17.43;44.52
60820;BME280;46641;48.904;9.126;2023-04-09T19:11:19;99219.31;;;17.36;44.29
60820;BME280;46641;48.904;9.126;2023-04-09T19:16:09;99215.34;;;17.32;44.08
60820;BME280;46641;48.904;9.126;2023-04-09T19:21:00;99220.34;;;17.26;44.53
60820;BME280;46641;48.904;9.126;2023-04-09T19:25:51;99226.78;;;17.24;44.80
60820;BME280;46641;48.904;9.126;2023-04-09T19:30:44;99226.31;;;17.20;44.98
60820;BME280;46641;48.904;9.126;2023-04-09T19:35:34;99226.66;;;17.17;44.86
60820;BME280;46641;48.904;9.126;2023-04-09T19:40:29;99220.06;;;17.13;45.00
60820;BME280;46641;48.904;9.126;2023-04-09T19:45:19;99237.94;;;17.11;44.95
60820;BME280;46641;48.904;9.126;2023-04-09T19:50:10;99240.25;;;17.06;45.16
60820;BME280;46641;48.904;9.126;2023-04-09T19:55:00;99228.38;;;17.02;45.14
60820;BME280;46641;48.904;9.126;2023-04-09T19:59:50;99240.94;;;17.00;45.34
60820;BME280;46641;48.904;9.126;2023-04-09T20:04:41;99246.59;;;16.97;45.27
60820;BME280;46641;48.904;9.126;2023-04-09T20:09:31;99237.50;;;16.91;45.46
60820;BME280;46641;48.904;9.126;2023-04-09T20:14:21;99241.50;;;16.87;45.57
60820;BME280;46641;48.904;9.126;2023-04-09T20:19:12;99237.50;;;16.83;45.56
60820;BME280;46641;48.904;9.126;2023-04-09T20:24:02;99232.75;;;16.78;45.60
60820;BME280;46641;48.904;9.126;2023-04-09T20:28:53;99235.03;;;16.73;45.51
60820;BME280;46641;48.904;9.126;2023-04-09T20:33:43;99239.69;;;16.71;45.70
60820;BME280;46641;48.904;9.126;2023-04-09T20:38:33;99246.13;;;16.69;45.63
60820;BME280;46641;48.904;9.126;2023-04-09T20:43:23;99247.59;;;16.63;45.67
60820;BME280;46641;48.904;9.126;2023-04-09T20:48:14;99254.22;;;16.59;45.78
60820;BME280;46641;48.904;9.126;2023-04-09T20:53:04;99255.38;;;16.56;45.67
60820;BME280;46641;48.904;9.126;2023-04-09T20:57:54;99256.88;;;16.51;46.00
60820;BME280;46641;48.904;9.126;2023-04-09T21:02:44;99244.03;;;16.48;45.82
60820;BME280;46641;48.904;9.126;2023-04-09T21:07:35;99233.13;;;16.43;45.78
60820;BME280;46641;48.904;9.126;2023-04-09T21:12:25;99234.44;;;16.39;45.82
60820;BME280;46641;48.904;9.126;2023-04-09T21:17:17;99236.28;;;16.38;45.67
60820;BME280;46641;48.904;9.126;2023-04-09T21:22:07;99221.91;;;16.32;45.81
60820;BME280;46641;48.904;9.126;2023-04-09T21:26:57;99226.84;;;16.27;45.63
60820;BME280;46641;48.904;9.126;2023-04-09T21:31:48;99217.59;;;16.23;46.25
60820;BME280;46641;48.904;9.126;2023-04-09T21:36:38;99207.38;;;16.20;45.79
60820;BME280;46641;48.904;9.126;2023-04-09T21:41:29;99205.06;;;16.17;45.90
60820;BME280;46641;48.904;9.126;2023-04-09T21:46:20;99213.31;;;16.14;45.82
60820;BME280;46641;48.904;9.126;2023-04-09T21:51:10;99217.09;;;16.11;46.02
60820;BME280;46641;48.904;9.126;2023-04-09T21:56:01;99221.25;;;16.06;45.99
60820;BME280;46641;48.904;9.126;2023-04-09T22:00:51;99211.03;;;16.03;46.03
60820;BME280;46641;48.904;9.126;2023-04-09T22:05:42;99209.53;;;16.00;46.08
60820;BME280;46641;48.904;9.126;2023-04-09T22:10:32;99224.69;;;15.98;46.06
60820;BME280;46641;48.904;9.126;2023-04-09T22:15:22;99217.28;;;15.94;46.20
60820;BME280;46641;48.904;9.126;2023-04-09T22:20:13;99222.06;;;15.90;46.17
60820;BME280;46641;48.904;9.126;2023-04-09T22:25:03;99222.72;;;15.84;46.24
60820;BME280;46641;48.904;9.126;2023-04-09T22:29:55;99216.13;;;15.80;46.46
60820;BME280;46641;48.904;9.126;2023-04-09T22:34:46;99215.63;;;15.76;46.63
60820;BME280;46641;48.904;9.126;2023-04-09T22:39:36;99208.03;;;15.73;46.54
60820;BME280;46641;48.904;9.126;2023-04-09T22:44:26;99200.44;;;15.70;46.62
60820;BME280;46641;48.904;9.126;2023-04-09T22:49:17;99192.97;;;15.65;46.63
60820;BME280;46641;48.904;9.126;2023-04-09T22:54:08;99193.47;;;15.61;46.61
60820;BME280;46641;48.904;9.126;2023-04-09T22:58:58;99191.31;;;15.56;46.75
60820;BME280;46641;48.904;9.126;2023-04-09T23:03:49;99190.97;;;15.51;46.71
60820;BME280;46641;48.904;9.126;2023-04-09T23:08:39;99207.13;;;15.48;46.64
60820;BME280;46641;48.904;9.126;2023-04-09T23:13:29;99210.22;;;15.43;46.82
60820;BME280;46641;48.904;9.126;2023-04-09T23:18:20;99207.28;;;15.38;46.96
60820;BME280;46641;48.904;9.126;2023-04-09T23:23:10;99212.69;;;15.37;47.20
60820;BME280;46641;48.904;9.126;2023-04-09T23:28:00;99210.38;;;15.34;47.12
60820;BME280;46641;48.904;9.126;2023-04-09T23:32:51;99214.19;;;15.31;47.23
60820;BME280;46641;48.904;9.126;2023-04-09T23:37:41;99205.78;;;15.28;47.11
60820;BME280;46641;48.904;9.126;2023-04-09T23:42:32;99206.09;;;15.25;47.13
60820;BME280;46641;48.904;9.126;2023-04-09T23:47:23;99205.41;;;15.23;47.32
60820;BME280;46641;48.904;9.126;2023-04-09T23:52:13;99205.91;;;15.18;47.20
60820;BME280;46641;48.904;9.126;2023-04-09T23:57:03;99205.06;;;15.17;47.02
